Bradenton, FL (34205)

7:15 AM EST on March 01, 2015 (GMT -0500)
Lakeside South | Change Station
CLOSE
Current Station
Personal Weather Station
Location: Bradenton, FL
Elevation: 22 ft
Nearby Weather Stations

Elev 22 ft 27.47 °N, 82.60 °W | Updated 46 seconds ago

Overcast
Overcast
67.2 °F
Feels Like 67.2 °F
N
0.0
Wind Variable Wind from NE
Gusts 5.0 mph

Today
High -- | Low -- °F
--% Chance of Precip.
Yesterday
High -- | Low -- °F
Precip. -- in
6:54 AM 6:30 PM
Waxing Gibbous, 84% visible
Pressure 30.29 in
Visibility 10.0 miles
Clouds Overcast 500 ft
Dew Point 65 °F
Humidity 94%
Rainfall 0.00 in
Snow Depth Not available.
UV 0 out of 12
Pollen 10.50 out of 12
Air Quality Not available.
Flu Activity Not available.
METAR KSRQ 011153Z 05006KT 10SM OVC005 19/19 A3029 RMK AO2 CIG 004V008 SLP256 T01940189 10200 20189 53012

More Conditions Fewer Conditions

Pressure 30.29 in
Visibility 10.0 miles
Clouds Overcast 500 ft
Dew Point 65 °F
Humidity 94%
Rainfall 0.00 in
Snow Depth Not available.
UV 0 out of 12
Pollen 10.50 out of 12
Air Quality Not available.
Flu Activity Not available.
METAR KSRQ 011153Z 05006KT 10SM OVC005 19/19 A3029 RMK AO2 CIG 004V008 SLP256 T01940189 10200 20189 53012

More Conditions Fewer Conditions

10-Day Weather Forecast

Almanac

Astronomy

Mar. 01, 2015 Rise Set
Actual Time
Civil Twilight
Nautical Twilight
Astronomical Twilight
Moon
Length of Visible Light
Length of Day
Tomorrow will be .
, % of the Moon is Illuminated

Today's Extremes

State Highs State Lows

Community

WunderPhotos

Upload Photos

1,801,365 photos uploaded!

WunderBlogs® & News

Nearby

Air Quality

  Air Quality AQ Index Pollutant
Not available.

Snow Depth

Station Depth Elevation

Earthquake Activity

City Distance Mag. Time & Date
Minimum magnitude displayed is 2.5.

Coastal Water Temperatures

Place Temperature

Nearby Weather Stations